createdAt,value
2023-02-21T00:01:10.966Z,18.66375
2023-02-21T00:06:12.748Z,17.31745
2023-02-21T00:11:14.721Z,14.62485
2023-02-21T00:16:16.565Z,14.4404
2023-02-21T00:21:18.416Z,10.1619
2023-02-21T00:26:20.027Z,9.97745
2023-02-21T00:31:21.768Z,5.33005
2023-02-21T00:36:23.684Z,6.7315
2023-02-21T00:41:25.340Z,6.3626
2023-02-21T00:46:26.939Z,4.0389
2023-02-21T00:51:28.690Z,2.42955
2023-02-21T00:56:30.397Z,1.83695
2023-02-21T01:01:32.058Z,5.5109
2023-02-21T01:06:33.895Z,5.15535
2023-02-21T01:11:35.574Z,5.7479
2023-02-21T01:16:37.266Z,2.1925
2023-02-21T01:21:39.032Z,1.16185
2023-02-21T01:26:40.748Z,1.16185
2023-02-21T01:31:42.459Z,0
2023-02-21T01:36:44.184Z,0.88715
2023-02-21T01:41:45.832Z,0
2023-02-21T01:46:47.514Z,0
2023-02-21T01:51:49.228Z,0
2023-02-21T01:56:50.880Z,0
2023-02-21T02:01:52.590Z,0
2023-02-21T02:06:54.588Z,0
2023-02-21T02:11:56.196Z,0
2023-02-21T02:16:57.793Z,0
2023-02-21T02:21:59.651Z,0
2023-02-21T02:27:01.957Z,0
2023-02-21T02:32:03.717Z,0
2023-02-21T02:37:05.537Z,0
2023-02-21T02:42:07.200Z,0
2023-02-21T02:47:08.852Z,0
2023-02-21T02:52:10.579Z,0
2023-02-21T02:57:12.244Z,0
2023-02-21T03:02:13.995Z,0
2023-02-21T03:07:15.740Z,0
2023-02-21T03:12:17.476Z,0
2023-02-21T03:17:19.140Z,0
2023-02-21T03:22:21.017Z,0
2023-02-21T03:27:22.817Z,0
2023-02-21T03:32:24.683Z,0
2023-02-21T03:37:26.390Z,0
2023-02-21T03:42:28.019Z,0
2023-02-21T03:47:29.704Z,0
2023-02-21T03:52:31.411Z,0
2023-02-21T03:57:33.066Z,0
2023-02-21T04:02:34.736Z,0
2023-02-21T04:07:36.507Z,0
2023-02-21T04:12:38.061Z,0
2023-02-21T04:17:39.743Z,0
2023-02-21T04:22:41.394Z,0
2023-02-21T04:27:43.020Z,0
2023-02-21T04:32:44.776Z,0
2023-02-21T04:37:46.508Z,0
2023-02-21T04:42:48.151Z,0
2023-02-21T04:47:49.984Z,0
2023-02-21T04:52:51.705Z,0
2023-02-21T04:57:53.342Z,0
2023-02-21T05:02:55.003Z,0
2023-02-21T05:07:56.933Z,0
2023-02-21T05:12:58.565Z,0
2023-02-21T05:18:00.186Z,0
2023-02-21T05:23:11.727Z,0
2023-02-21T05:28:15.068Z,0
2023-02-21T05:33:16.696Z,0
2023-02-21T05:38:18.582Z,0
2023-02-21T05:43:20.195Z,0
2023-02-21T05:48:21.845Z,0
2023-02-21T05:53:23.611Z,0
2023-02-21T05:58:25.349Z,0
2023-02-21T06:03:27.115Z,0
2023-02-21T06:08:28.823Z,0
2023-02-21T06:13:32.170Z,0
2023-02-21T06:18:34.566Z,0
2023-02-21T06:23:36.341Z,0
2023-02-21T06:28:37.940Z,0
2023-02-21T06:33:39.638Z,0
2023-02-21T06:38:41.325Z,0
2023-02-21T06:43:42.978Z,0
2023-02-21T06:48:44.610Z,0
2023-02-21T06:53:46.314Z,0
2023-02-21T06:58:48.045Z,0
2023-02-21T07:03:49.665Z,0
2023-02-21T07:08:51.396Z,0
2023-02-21T07:13:53.038Z,0
2023-02-21T07:18:54.711Z,0
2023-02-21T07:23:56.504Z,0
2023-02-21T07:28:58.131Z,0
2023-02-21T07:33:59.797Z,0
2023-02-21T07:39:01.608Z,0
2023-02-21T07:44:03.274Z,0
2023-02-21T07:49:04.882Z,0
2023-02-21T07:54:06.586Z,0
2023-02-21T07:59:08.258Z,0
2023-02-21T08:04:09.942Z,0
2023-02-21T08:09:11.658Z,0
2023-02-21T08:14:13.277Z,0
2023-02-21T08:19:14.874Z,0
2023-02-21T08:24:16.656Z,0
2023-02-21T08:29:18.358Z,0
2023-02-21T08:34:20.163Z,0
2023-02-21T08:39:21.887Z,0
2023-02-21T08:44:23.551Z,0
2023-02-21T08:49:25.156Z,0
2023-02-21T08:54:26.904Z,0
2023-02-21T08:59:28.470Z,0
2023-02-21T09:04:30.066Z,0
2023-02-21T09:09:31.727Z,0
2023-02-21T09:14:33.325Z,0
2023-02-21T09:19:34.892Z,0
2023-02-21T09:24:36.922Z,0
2023-02-21T09:29:45.814Z,0
2023-02-21T09:34:48.448Z,0
2023-02-21T09:39:50.201Z,0
2023-02-21T09:44:51.850Z,0
2023-02-21T09:49:53.475Z,0
2023-02-21T09:54:55.306Z,0
2023-02-21T09:59:56.846Z,0
2023-02-21T10:04:58.501Z,0
2023-02-21T10:10:00.552Z,0
2023-02-21T10:15:02.292Z,0
2023-02-21T10:20:03.952Z,0
2023-02-21T10:25:05.721Z,0
2023-02-21T10:30:07.395Z,0
2023-02-21T10:35:09.060Z,0
2023-02-21T10:40:10.838Z,0
2023-02-21T10:45:12.444Z,0
2023-02-21T10:50:14.091Z,0
2023-02-21T10:55:31.347Z,0
2023-02-21T11:00:33.888Z,0
2023-02-21T11:05:35.488Z,0
2023-02-21T11:10:37.245Z,0
2023-02-21T11:15:38.873Z,0
2023-02-21T11:20:40.548Z,0
2023-02-21T11:25:42.322Z,0
2023-02-21T11:30:44.170Z,0
2023-02-21T11:35:45.861Z,0
2023-02-21T11:40:47.615Z,0
2023-02-21T11:45:49.267Z,0
2023-02-21T11:50:50.976Z,0
2023-02-21T11:55:52.730Z,0
2023-02-21T12:00:54.325Z,0
2023-02-21T12:05:55.974Z,0
2023-02-21T12:10:58.735Z,0
2023-02-21T12:16:00.356Z,0
2023-02-21T12:21:01.970Z,0
2023-02-21T12:26:03.809Z,0
2023-02-21T12:31:05.510Z,0
2023-02-21T12:36:07.153Z,0
2023-02-21T12:41:08.853Z,0
2023-02-21T12:46:10.516Z,0
2023-02-21T12:51:12.155Z,0
2023-02-21T12:56:14.064Z,0
2023-02-21T13:01:16.856Z,0
2023-02-21T13:06:19.362Z,0
2023-02-21T13:11:21.369Z,0
2023-02-21T13:16:23.049Z,0
2023-02-21T13:21:24.671Z,0
2023-02-21T13:26:26.389Z,0
2023-02-21T13:31:28.216Z,0
2023-02-21T13:36:29.886Z,0
2023-02-21T13:41:31.725Z,0
2023-02-21T13:46:33.349Z,0
2023-02-21T13:51:35.271Z,0
2023-02-21T13:56:37.011Z,0
2023-02-21T14:01:38.591Z,0
2023-02-21T14:06:40.180Z,0
2023-02-21T14:11:41.907Z,0
2023-02-21T14:16:43.585Z,0
2023-02-21T14:21:45.421Z,0
2023-02-21T14:26:47.099Z,0
2023-02-21T14:31:48.844Z,1.16185
2023-02-21T14:36:50.610Z,1.3463
2023-02-21T14:41:52.306Z,1.53075
2023-02-21T14:46:54.639Z,5.9937
2023-02-21T14:51:56.272Z,8.3174
2023-02-21T14:56:58.009Z,10.82555
2023-02-21T15:01:59.777Z,14.68
2023-02-21T15:07:01.404Z,14.4404
2023-02-21T15:12:03.180Z,21.59595
2023-02-21T15:17:04.775Z,20.37895
2023-02-21T15:22:06.375Z,28.69635
2023-02-21T15:27:08.112Z,31.9423
2023-02-21T15:32:09.983Z,34.0264
2023-02-21T15:37:11.633Z,38.24975
2023-02-21T15:42:13.352Z,45.7742
2023-02-21T15:47:14.954Z,50.182
2023-02-21T15:52:16.583Z,49.51835
2023-02-21T15:57:18.487Z,58.9976
2023-02-21T16:02:20.477Z,65.3602
2023-02-21T16:07:22.119Z,61.02655
2023-02-21T16:12:23.807Z,66.04285
2023-02-21T16:17:25.451Z,69.0492
2023-02-21T16:22:27.100Z,82.1433
2023-02-21T16:27:28.906Z,91.6967
2023-02-21T16:32:30.676Z,101.06565
2023-02-21T16:37:32.387Z,105.7872
2023-02-21T16:42:34.094Z,116.74205
2023-02-21T16:47:35.718Z,118.771
2023-02-21T16:52:37.361Z,127.4573
2023-02-21T16:57:39.125Z,127.40215
2023-02-21T17:02:40.824Z,129.5414
2023-02-21T17:07:42.591Z,130.33435
2023-02-21T17:12:44.369Z,134.4284
2023-02-21T17:17:52.777Z,133.0821
2023-02-21T17:22:55.431Z,131.18245
2023-02-21T17:27:57.229Z,128.9139
2023-02-21T17:32:58.908Z,124.5061
2023-02-21T17:38:00.576Z,123.7683
2023-02-21T17:43:02.293Z,124.56125
2023-02-21T17:48:04.211Z,123.7683
2023-02-21T17:53:05.995Z,127.8072
2023-02-21T17:58:07.712Z,132.03055
2023-02-21T18:03:09.319Z,139.73945
2023-02-21T18:08:10.933Z,139.13095
2023-02-21T18:13:12.754Z,138.76205
2023-02-21T18:18:14.453Z,135.885
2023-02-21T18:23:16.046Z,136.1246
2023-02-21T18:28:17.828Z,132.27015
2023-02-21T18:33:19.468Z,131.53235
2023-02-21T18:38:21.164Z,117.59015
2023-02-21T18:43:23.229Z,122.34785
2023-02-21T18:48:24.873Z,109.99155
2023-02-21T18:53:26.592Z,105.0304
2023-02-21T18:58:28.337Z,99.2763
2023-02-21T19:03:29.944Z,97.1922
2023-02-21T19:08:31.555Z,96.4544
2023-02-21T19:13:33.233Z,92.7844
2023-02-21T19:18:34.825Z,90.0918
2023-02-21T19:23:36.516Z,86.47695
2023-02-21T19:28:38.297Z,82.06915
2023-02-21T19:33:39.964Z,81.5158
2023-02-21T19:38:41.612Z,76.1306
2023-02-21T19:43:43.305Z,72.51575
2023-02-21T19:48:44.892Z,60.2146
2023-02-21T19:53:46.547Z,43.02645
2023-02-21T19:58:48.281Z,40.44415
2023-02-21T20:03:50.149Z,40.2597
2023-02-21T20:08:51.899Z,42.9523
2023-02-21T20:13:53.702Z,35.8519
2023-02-21T20:18:55.405Z,46.67745
2023-02-21T20:23:57.025Z,64.4741
2023-02-21T20:28:58.820Z,92.5981
2023-02-21T20:34:00.526Z,137.54135
2023-02-21T20:39:02.188Z,127.6932
2023-02-21T20:44:04.030Z,126.3469
2023-02-21T20:49:05.634Z,162.5487
2023-02-21T20:54:07.324Z,208.59865
2023-02-21T20:59:09.067Z,219.4242
2023-02-21T21:04:10.762Z,257.52565
2023-02-21T21:09:12.528Z,298.3197
2023-02-21T21:14:16.091Z,324.80265
2023-02-21T21:19:17.934Z,355.3245
2023-02-21T21:24:19.547Z,385.0534
2023-02-21T21:29:21.311Z,408.97305
2023-02-21T21:34:22.931Z,436.9316
2023-02-21T21:39:24.814Z,459.6894
2023-02-21T21:44:26.569Z,549.9638
2023-02-21T21:49:28.171Z,635.90455
2023-02-21T21:54:29.840Z,644.22195
2023-02-21T21:59:31.560Z,649.23825
2023-02-21T22:04:33.163Z,806.4949
2023-02-21T22:09:34.929Z,828.5149
2023-02-21T22:14:36.685Z,805.5175
2023-02-21T22:19:38.309Z,807.41715
2023-02-21T22:24:39.938Z,866.8008
2023-02-21T22:29:41.563Z,848.2112
2023-02-21T22:34:43.213Z,840.1334
2023-02-21T22:39:44.837Z,839.156
2023-02-21T22:44:46.548Z,857.1371
2023-02-21T22:49:48.148Z,816.0483
2023-02-21T22:54:49.765Z,792.73715
2023-02-21T22:59:51.455Z,832.12975
2023-02-21T23:04:53.111Z,856.84235
2023-02-21T23:09:54.736Z,744.54795
2023-02-21T23:14:56.470Z,716.16535
2023-02-21T23:19:58.346Z,649.12795
2023-02-21T23:25:00.062Z,617.3891
2023-02-21T23:30:01.784Z,601.9713
2023-02-21T23:35:03.439Z,536.46465
2023-02-21T23:40:05.138Z,493.2176
2023-02-21T23:45:06.920Z,455.1713
2023-02-21T23:50:08.531Z,392.72615
2023-02-21T23:55:10.157Z,353.33355
